Time;durP1;ratioP1;P1;durP2;ratioP2;P2;SDS_P1;SDS_P2;PMS_P1;PMS_P2;Temp;Humidity;BMP_temperature;BMP_pressure;BME280_temperature;BME280_humidity;BME280_pressure;Samples;Min_cycle;Max_cycle;Signal;HPM_P1;HPM_P2
2022/11/10 00:00:48;;;;;;;8.05;5.53;;;;;;;;;;4951905;28;20104;-85
2022/11/10 00:03:36;;;;;;;6.93;4.40;;;;;;;;;;4945975;28;20035;-85
2022/11/10 00:06:22;;;;;;;6.65;4.80;;;;;;;;;;4945787;28;20058;-85
2022/11/10 00:09:08;;;;;;;6.72;4.50;;;;;;;;;;4945722;28;20046;-86
2022/11/10 00:11:54;;;;;;;8.43;5.35;;;;;;;;;;4945509;28;20042;-86
2022/11/10 00:17:46;;;;;;;6.70;4.45;;;;;;;;;;4951178;28;20046;-85
2022/11/10 00:20:33;;;;;;;8.18;4.85;;;;;;;;;;4945206;28;20043;-85
2022/11/10 00:23:19;;;;;;;8.55;5.25;;;;;;;;;;4945613;28;20035;-85
2022/11/10 00:26:10;;;;;;;7.32;4.70;;;;;;;;;;4945638;28;20050;-85
2022/11/10 00:28:56;;;;;;;6.88;5.05;;;;;;;;;;4945900;28;20042;-84
2022/11/10 00:31:42;;;;;;;6.38;4.70;;;;;;;;;;4945597;28;20035;-85
2022/11/10 00:34:28;;;;;;;6.00;4.47;;;;;;;;;;4931593;28;20039;-85
2022/11/10 00:37:16;;;;;;;6.28;4.22;;;;;;;;;;4945585;28;20051;-86
2022/11/10 00:40:03;;;;;;;6.53;4.53;;;;;;;;;;4945801;28;20413;-86
2022/11/10 00:42:51;;;;;;;6.15;4.15;;;;;;;;;;4945026;28;20058;-85
2022/11/10 00:45:41;;;;;;;7.03;4.85;;;;;;;;;;4946334;28;20054;-86
2022/11/10 00:48:28;;;;;;;6.50;4.18;;;;;;;;;;4945749;28;20039;-86
2022/11/10 00:51:18;;;;;;;6.57;4.15;;;;;;;;;;4944754;28;20047;-85
2022/11/10 00:54:04;;;;;;;6.10;4.03;;;;;;;;;;4944258;28;20070;-86
2022/11/10 00:56:49;;;;;;;6.95;4.25;;;;;;;;;;4945523;28;20101;-85
2022/11/10 00:59:36;;;;;;;5.68;3.70;;;;;;;;;;4931196;28;20041;-84
2022/11/10 01:02:22;;;;;;;6.55;3.85;;;;;;;;;;4931909;28;20031;-85
2022/11/10 01:05:08;;;;;;;6.95;4.10;;;;;;;;;;4932575;28;20047;-86
2022/11/10 01:07:53;;;;;;;7.25;3.40;;;;;;;;;;4932211;28;20097;-85
2022/11/10 01:10:39;;;;;;;5.95;3.85;;;;;;;;;;4931617;28;20039;-85
2022/11/10 01:13:25;;;;;;;6.63;4.18;;;;;;;;;;4932030;28;20034;-86
2022/11/10 01:16:16;;;;;;;6.40;3.45;;;;;;;;;;4932144;28;20039;-84
2022/11/10 01:19:03;;;;;;;5.35;4.28;;;;;;;;;;4932601;28;20514;-86
2022/11/10 01:21:50;;;;;;;6.05;3.70;;;;;;;;;;4932339;28;20417;-86
2022/11/10 01:24:36;;;;;;;6.22;4.60;;;;;;;;;;4932089;28;20429;-86
2022/11/10 01:27:22;;;;;;;8.65;4.10;;;;;;;;;;4944881;28;20565;-85
2022/11/10 01:30:07;;;;;;;5.97;3.65;;;;;;;;;;4932300;28;20039;-86
2022/11/10 01:32:54;;;;;;;6.78;3.70;;;;;;;;;;4930942;28;20524;-85
2022/11/10 01:35:39;;;;;;;5.80;3.13;;;;;;;;;;4931366;28;20050;-85
2022/11/10 01:38:31;;;;;;;6.97;3.13;;;;;;;;;;4932005;28;20540;-86
2022/11/10 01:41:17;;;;;;;6.70;3.10;;;;;;;;;;4931933;28;20142;-85
2022/11/10 01:44:23;;;;;;;5.93;3.28;;;;;;;;;;4931761;28;20098;-86
2022/11/10 01:47:10;;;;;;;6.20;3.10;;;;;;;;;;4933050;28;20211;-85
2022/11/10 01:49:56;;;;;;;5.80;3.17;;;;;;;;;;4931503;28;20114;-85
2022/11/10 01:52:43;;;;;;;6.15;3.50;;;;;;;;;;4944695;28;20039;-85
2022/11/10 01:55:30;;;;;;;5.47;3.22;;;;;;;;;;4931463;28;20042;-86
2022/11/10 01:58:18;;;;;;;6.60;3.47;;;;;;;;;;4931668;28;20047;-85
2022/11/10 02:01:07;;;;;;;4.53;2.65;;;;;;;;;;4932196;28;20047;-85
2022/11/10 02:03:56;;;;;;;5.53;3.38;;;;;;;;;;4931290;28;20056;-86
2022/11/10 02:06:44;;;;;;;4.40;2.85;;;;;;;;;;4931830;28;20051;-85
2022/11/10 02:09:30;;;;;;;5.47;2.80;;;;;;;;;;4931952;28;20049;-86
2022/11/10 02:12:35;;;;;;;4.70;2.13;;;;;;;;;;4931448;28;20042;-85
2022/11/10 02:15:21;;;;;;;5.25;2.50;;;;;;;;;;4937107;28;20039;-86
2022/11/10 02:18:07;;;;;;;7.78;3.42;;;;;;;;;;4930120;28;20047;-85
2022/11/10 02:20:53;;;;;;;4.15;2.22;;;;;;;;;;4932173;28;20039;-86
2022/11/10 02:23:42;;;;;;;5.57;2.83;;;;;;;;;;4934388;28;20050;-86
2022/11/10 02:26:28;;;;;;;4.38;2.85;;;;;;;;;;4934809;28;20081;-85
2022/11/10 02:29:14;;;;;;;4.75;2.60;;;;;;;;;;4947265;28;20038;-85
2022/11/10 02:32:00;;;;;;;5.72;2.42;;;;;;;;;;4935200;28;20039;-86
2022/11/10 02:34:46;;;;;;;5.95;2.70;;;;;;;;;;4947430;28;20137;-85
2022/11/10 02:37:32;;;;;;;4.05;2.50;;;;;;;;;;4934589;28;20051;-85
2022/11/10 02:40:18;;;;;;;5.32;2.67;;;;;;;;;;4946890;28;20122;-86
2022/11/10 02:43:05;;;;;;;4.22;2.05;;;;;;;;;;4946940;28;20046;-86
2022/11/10 02:45:52;;;;;;;4.00;2.15;;;;;;;;;;4942746;28;20526;-86
2022/11/10 02:48:39;;;;;;;5.05;2.53;;;;;;;;;;4934184;28;20125;-85
2022/11/10 02:51:25;;;;;;;4.55;2.50;;;;;;;;;;4933280;28;20584;-86
2022/11/10 02:54:10;;;;;;;4.57;2.08;;;;;;;;;;4934248;28;20484;-85
2022/11/10 02:56:56;;;;;;;4.43;2.47;;;;;;;;;;4933805;28;20043;-86
2022/11/10 02:59:43;;;;;;;3.72;2.10;;;;;;;;;;4946900;28;20050;-85
2022/11/10 03:02:29;;;;;;;4.40;2.03;;;;;;;;;;4933849;28;20035;-86
2022/11/10 03:05:15;;;;;;;4.65;2.35;;;;;;;;;;4933471;28;20063;-86
2022/11/10 03:08:01;;;;;;;5.65;2.45;;;;;;;;;;4934086;28;20050;-86
2022/11/10 03:10:48;;;;;;;3.20;1.80;;;;;;;;;;4934429;28;20429;-86
2022/11/10 03:13:35;;;;;;;3.45;1.80;;;;;;;;;;4933213;28;20506;-86
2022/11/10 03:16:22;;;;;;;4.28;2.22;;;;;;;;;;4933726;28;20066;-86
2022/11/10 03:19:07;;;;;;;5.22;2.03;;;;;;;;;;4934184;28;20043;-86
2022/11/10 03:21:54;;;;;;;3.08;1.83;;;;;;;;;;4933959;28;20126;-86
2022/11/10 03:24:40;;;;;;;3.72;1.75;;;;;;;;;;4933786;28;20053;-86
2022/11/10 03:27:27;;;;;;;4.47;2.22;;;;;;;;;;4933821;28;20039;-86
2022/11/10 03:30:13;;;;;;;3.35;1.70;;;;;;;;;;4933575;28;20035;-86
2022/11/10 03:32:59;;;;;;;3.58;1.85;;;;;;;;;;4946571;28;20497;-86
2022/11/10 03:35:45;;;;;;;4.05;2.00;;;;;;;;;;4933424;28;20070;-86
2022/11/10 03:38:31;;;;;;;4.03;1.67;;;;;;;;;;4935531;28;20093;-85
2022/11/10 03:41:18;;;;;;;4.88;2.10;;;;;;;;;;4952683;28;20085;-85
2022/11/10 03:44:03;;;;;;;3.67;1.58;;;;;;;;;;4952559;28;20053;-86
2022/11/10 03:46:50;;;;;;;3.20;1.70;;;;;;;;;;4952406;28;20424;-86
2022/11/10 03:49:37;;;;;;;4.20;1.90;;;;;;;;;;4952659;28;20066;-85
2022/11/10 03:52:24;;;;;;;3.10;1.65;;;;;;;;;;4952543;28;20034;-86
2022/11/10 03:55:12;;;;;;;4.95;1.90;;;;;;;;;;4952280;28;20046;-86
2022/11/10 03:58:02;;;;;;;3.58;1.58;;;;;;;;;;4951698;28;20125;-85
2022/11/10 04:00:48;;;;;;;4.22;1.80;;;;;;;;;;4963799;28;20134;-86
2022/11/10 04:03:35;;;;;;;4.20;1.58;;;;;;;;;;4951940;28;20039;-86
2022/11/10 04:09:27;;;;;;;3.67;2.03;;;;;;;;;;4970412;28;20504;-85
2022/11/10 04:18:28;;;;;;;4.35;1.75;;;;;;;;;;4970530;28;20030;-86
2022/11/10 04:21:15;;;;;;;3.45;1.40;;;;;;;;;;4952652;28;20035;-86
2022/11/10 04:24:00;;;;;;;5.28;1.67;;;;;;;;;;4952053;28;20047;-86
2022/11/10 04:26:47;;;;;;;4.38;1.67;;;;;;;;;;4951575;28;20046;-86
2022/11/10 04:29:33;;;;;;;4.18;1.45;;;;;;;;;;4951839;28;20431;-86
2022/11/10 04:32:20;;;;;;;4.40;2.15;;;;;;;;;;4951194;28;20409;-85
2022/11/10 04:35:06;;;;;;;3.42;1.98;;;;;;;;;;4932521;28;20105;-86
2022/11/10 04:37:53;;;;;;;4.97;2.67;;;;;;;;;;4944951;28;20420;-85
2022/11/10 04:40:39;;;;;;;4.05;1.55;;;;;;;;;;4932831;28;20046;-86
2022/11/10 04:43:27;;;;;;;3.35;1.20;;;;;;;;;;4945445;28;20098;-86
2022/11/10 04:46:27;;;;;;;4.30;1.60;;;;;;;;;;4931321;28;20070;-87
2022/11/10 04:49:14;;;;;;;3.95;1.58;;;;;;;;;;4946506;28;20395;-86
2022/11/10 04:52:00;;;;;;;2.53;1.20;;;;;;;;;;4931111;28;20073;-85
2022/11/10 04:54:47;;;;;;;4.13;1.88;;;;;;;;;;4931774;28;20050;-87
2022/11/10 04:57:33;;;;;;;3.40;1.52;;;;;;;;;;4944717;28;20031;-85
2022/11/10 05:00:19;;;;;;;2.80;1.20;;;;;;;;;;4945380;28;20093;-86
2022/11/10 05:03:06;;;;;;;3.92;1.40;;;;;;;;;;4932768;28;20031;-87
2022/11/10 05:05:53;;;;;;;3.10;1.10;;;;;;;;;;4944577;28;20166;-86
2022/11/10 05:08:39;;;;;;;3.08;1.17;;;;;;;;;;4932155;28;20045;-86
2022/11/10 05:11:25;;;;;;;3.40;1.50;;;;;;;;;;4945309;28;20420;-86
2022/11/10 05:14:12;;;;;;;3.15;1.20;;;;;;;;;;4931844;28;20054;-86
2022/11/10 05:16:57;;;;;;;2.47;1.27;;;;;;;;;;4944514;28;20046;-85
2022/11/10 05:19:46;;;;;;;3.00;1.30;;;;;;;;;;4944587;28;20031;-86
2022/11/10 05:22:33;;;;;;;3.05;1.30;;;;;;;;;;4944946;28;20101;-85
2022/11/10 05:25:18;;;;;;;2.63;1.17;;;;;;;;;;4945255;28;20043;-86
2022/11/10 05:28:04;;;;;;;4.13;2.30;;;;;;;;;;4931750;28;20055;-86
2022/11/10 05:30:51;;;;;;;4.90;1.38;;;;;;;;;;4962360;28;20866;-86
2022/11/10 05:33:38;;;;;;;3.92;1.30;;;;;;;;;;4963171;28;20047;-86
2022/11/10 05:36:24;;;;;;;3.45;1.40;;;;;;;;;;4977171;28;20046;-86
2022/11/10 05:39:09;;;;;;;4.38;1.40;;;;;;;;;;4977508;28;20042;-86
2022/11/10 05:41:55;;;;;;;2.38;1.08;;;;;;;;;;4962951;28;20038;-86
2022/11/10 05:44:42;;;;;;;2.80;1.33;;;;;;;;;;4963247;28;20046;-86
2022/11/10 05:47:30;;;;;;;3.33;1.25;;;;;;;;;;4963106;28;20034;-86
2022/11/10 05:50:16;;;;;;;4.90;1.65;;;;;;;;;;4963436;28;20050;-85
2022/11/10 05:53:02;;;;;;;3.85;1.30;;;;;;;;;;4989837;28;20471;-85
2022/11/10 05:55:49;;;;;;;2.63;1.20;;;;;;;;;;4977220;28;20046;-86
2022/11/10 05:58:35;;;;;;;3.08;1.30;;;;;;;;;;4966936;28;20043;-86
2022/11/10 06:01:22;;;;;;;3.92;1.27;;;;;;;;;;4966156;28;20109;-86
2022/11/10 06:04:09;;;;;;;2.85;1.17;;;;;;;;;;4966797;28;20104;-86
2022/11/10 06:06:54;;;;;;;3.30;0.95;;;;;;;;;;4966906;28;20089;-86
2022/11/10 06:09:40;;;;;;;3.30;1.17;;;;;;;;;;4966919;28;20535;-86
2022/11/10 06:12:29;;;;;;;2.40;1.30;;;;;;;;;;4980400;28;20050;-85
2022/11/10 06:15:15;;;;;;;3.05;1.10;;;;;;;;;;4967546;28;20054;-86
2022/11/10 06:18:04;;;;;;;3.20;1.38;;;;;;;;;;4967159;28;20095;-87
2022/11/10 06:20:54;;;;;;;3.45;1.30;;;;;;;;;;4967334;28;20811;-87
2022/11/10 06:23:43;;;;;;;7.97;2.88;;;;;;;;;;4954442;28;20043;-88
2022/11/10 06:26:29;;;;;;;14.93;8.35;;;;;;;;;;4970015;28;20042;-88
2022/11/10 06:29:16;;;;;;;13.57;8.35;;;;;;;;;;4973883;28;20451;-89
2022/11/10 06:32:02;;;;;;;15.25;8.75;;;;;;;;;;4970692;28;20048;-89
2022/11/10 06:34:48;;;;;;;15.05;8.65;;;;;;;;;;4984146;28;20038;-90
2022/11/10 06:37:33;;;;;;;23.50;8.55;;;;;;;;;;4972410;28;20530;-89
2022/11/10 06:40:19;;;;;;;14.13;8.13;;;;;;;;;;4958119;28;20046;-90
2022/11/10 06:43:05;;;;;;;17.15;8.38;;;;;;;;;;4963057;28;20049;-91
2022/11/10 06:45:51;;;;;;;14.43;8.15;;;;;;;;;;4966214;28;20038;-90
2022/11/10 06:48:37;;;;;;;16.88;8.63;;;;;;;;;;4959037;28;20093;-91
2022/11/10 06:51:22;;;;;;;17.52;8.27;;;;;;;;;;4960049;28;20038;-91
2022/11/10 06:54:08;;;;;;;17.95;7.57;;;;;;;;;;4956974;28;20034;-90
2022/11/10 06:56:54;;;;;;;14.73;7.57;;;;;;;;;;4964725;28;20042;-90
2022/11/10 06:59:39;;;;;;;18.55;8.82;;;;;;;;;;4969955;28;20049;-92
2022/11/10 07:02:25;;;;;;;16.60;8.13;;;;;;;;;;4964856;28;20038;-90
2022/11/10 07:05:11;;;;;;;12.80;7.22;;;;;;;;;;4961896;28;20053;-91
2022/11/10 07:08:04;;;;;;;14.57;7.70;;;;;;;;;;4968341;28;20073;-88
2022/11/10 07:10:51;;;;;;;14.48;6.75;;;;;;;;;;4985341;28;20030;-92
2022/11/10 07:13:37;;;;;;;14.80;7.40;;;;;;;;;;4972915;28;20050;-91
2022/11/10 07:16:22;;;;;;;32.75;13.25;;;;;;;;;;4952635;28;20121;-92
2022/11/10 07:19:08;;;;;;;104.13;43.95;;;;;;;;;;4960677;28;20043;-93
2022/11/10 07:21:54;;;;;;;305.25;158.23;;;;;;;;;;4961745;28;20034;-93
2022/11/10 07:24:40;;;;;;;434.27;276.92;;;;;;;;;;4960964;28;20047;-92
2022/11/10 07:27:25;;;;;;;402.25;268.30;;;;;;;;;;4947559;28;20062;-91
2022/11/10 07:30:12;;;;;;;355.50;228.95;;;;;;;;;;4962003;28;20050;-93
2022/11/10 07:33:01;;;;;;;317.23;203.27;;;;;;;;;;4967057;28;20039;-92
2022/11/10 07:35:51;;;;;;;302.88;198.57;;;;;;;;;;4979723;28;20054;-93
2022/11/10 07:38:37;;;;;;;288.13;183.18;;;;;;;;;;4967082;28;20046;-92
2022/11/10 07:41:23;;;;;;;285.58;184.65;;;;;;;;;;4967189;28;20098;-92
2022/11/10 07:44:08;;;;;;;270.58;174.77;;;;;;;;;;4966642;28;20054;-92
2022/11/10 07:46:54;;;;;;;261.40;167.05;;;;;;;;;;4954048;28;20042;-92
2022/11/10 07:49:40;;;;;;;243.60;156.68;;;;;;;;;;4945996;28;20039;-93
2022/11/10 07:52:26;;;;;;;241.02;153.32;;;;;;;;;;4945618;28;20050;-92
2022/11/10 07:55:11;;;;;;;229.57;150.95;;;;;;;;;;4947228;28;20047;-92
2022/11/10 07:57:59;;;;;;;221.65;140.32;;;;;;;;;;4947872;28;20098;-93
2022/11/10 08:00:46;;;;;;;217.93;141.02;;;;;;;;;;4961027;28;20530;-93
2022/11/10 08:03:16;;;;;;;211.60;136.32;;;;;;;;;;4940326;28;20038;-93
2022/11/10 08:05:45;;;;;;;211.38;139.02;;;;;;;;;;4943364;28;20052;-92
2022/11/10 08:08:11;;;;;;;199.20;131.23;;;;;;;;;;4956029;28;20429;-92
2022/11/10 08:10:44;;;;;;;197.35;133.18;;;;;;;;;;4937540;28;20045;-93
2022/11/10 08:13:12;;;;;;;192.95;124.15;;;;;;;;;;4948641;28;20115;-92
2022/11/10 08:15:43;;;;;;;188.50;125.63;;;;;;;;;;4948576;28;20069;-93
2022/11/10 08:18:21;;;;;;;182.00;118.68;;;;;;;;;;4948766;28;20052;-93
2022/11/10 08:20:47;;;;;;;169.15;114.38;;;;;;;;;;4980157;28;20053;-93
2022/11/10 08:23:14;;;;;;;166.57;111.25;;;;;;;;;;4948859;28;20037;-92
2022/11/10 08:25:40;;;;;;;157.30;106.50;;;;;;;;;;4948482;28;20066;-93
2022/11/10 08:28:09;;;;;;;161.85;105.80;;;;;;;;;;4947373;28;20038;-92
2022/11/10 08:30:37;;;;;;;146.10;97.25;;;;;;;;;;4961009;28;20049;-92
2022/11/10 08:33:10;;;;;;;134.02;89.82;;;;;;;;;;4961145;28;20032;-92
2022/11/10 08:35:50;;;;;;;136.98;85.93;;;;;;;;;;4914577;28;20049;-92
2022/11/10 08:38:23;;;;;;;124.20;84.05;;;;;;;;;;4919742;28;20411;-92
2022/11/10 08:40:50;;;;;;;123.93;79.68;;;;;;;;;;4910022;28;20409;-92
2022/11/10 08:43:18;;;;;;;114.40;75.28;;;;;;;;;;4910016;28;20030;-92
2022/11/10 08:45:46;;;;;;;110.15;72.70;;;;;;;;;;4909762;28;20416;-92
2022/11/10 08:48:18;;;;;;;104.25;68.47;;;;;;;;;;4925315;28;20053;-92
2022/11/10 08:50:57;;;;;;;102.57;67.20;;;;;;;;;;4910757;28;20058;-92
2022/11/10 08:53:26;;;;;;;94.88;60.67;;;;;;;;;;4957160;28;20101;-92
2022/11/10 08:55:57;;;;;;;89.85;59.45;;;;;;;;;;4941547;28;20039;-92
2022/11/10 08:58:23;;;;;;;86.90;56.83;;;;;;;;;;4940813;28;20031;-92
2022/11/10 09:00:51;;;;;;;86.20;56.58;;;;;;;;;;4928396;28;20062;-91
2022/11/10 09:03:23;;;;;;;83.28;54.97;;;;;;;;;;4928250;28;20038;-92
2022/11/10 09:05:51;;;;;;;;;;;;;;;;;;4927660;28;20034;-92
2022/11/10 09:08:18;;;;;;;76.35;51.58;;;;;;;;;;4959859;28;20606;-91
2022/11/10 09:10:46;;;;;;;84.95;52.42;;;;;;;;;;4960035;28;20030;-91
2022/11/10 09:13:13;;;;;;;76.32;50.70;;;;;;;;;;4928300;28;20089;-91
2022/11/10 09:15:41;;;;;;;77.95;49.28;;;;;;;;;;4943818;28;20032;-91
2022/11/10 09:18:10;;;;;;;72.78;48.05;;;;;;;;;;4924775;28;20046;-91
2022/11/10 09:20:39;;;;;;;67.75;46.42;;;;;;;;;;4925198;28;20034;-91
2022/11/10 09:23:12;;;;;;;70.93;47.85;;;;;;;;;;4940694;28;20405;-91
2022/11/10 09:25:38;;;;;;;68.45;45.53;;;;;;;;;;4928383;28;20070;-90
2022/11/10 09:28:10;;;;;;;70.55;44.70;;;;;;;;;;4927783;28;20145;-90
2022/11/10 09:30:38;;;;;;;63.90;42.17;;;;;;;;;;4944397;28;20359;-90
2022/11/10 09:33:03;;;;;;;64.13;41.15;;;;;;;;;;4963391;28;20044;-90
2022/11/10 09:35:32;;;;;;;59.60;41.65;;;;;;;;;;4931933;28;20034;-90
2022/11/10 09:37:57;;;;;;;61.17;40.85;;;;;;;;;;4963569;28;20043;-89
2022/11/10 09:41:03;;;;;;;62.85;40.33;;;;;;;;;;4927961;28;20053;-89
2022/11/10 09:43:53;;;;;;;63.13;40.53;;;;;;;;;;4943127;28;20039;-88
2022/11/10 09:46:37;;;;;;;57.75;39.30;;;;;;;;;;4944177;28;20520;-87
2022/11/10 09:49:24;;;;;;;56.17;38.67;;;;;;;;;;4927993;28;20081;-88
2022/11/10 09:51:49;;;;;;;57.92;38.30;;;;;;;;;;4929046;28;20042;-84
2022/11/10 09:54:44;;;;;;;51.40;36.13;;;;;;;;;;4943053;28;20572;-81
2022/11/10 09:57:15;;;;;;;53.75;36.42;;;;;;;;;;4944495;28;20505;-82
2022/11/10 09:59:40;;;;;;;52.13;35.17;;;;;;;;;;4911663;28;20485;-81
2022/11/10 10:02:25;;;;;;;49.05;34.35;;;;;;;;;;4939641;28;20061;-81
2022/11/10 10:05:28;;;;;;;50.00;33.88;;;;;;;;;;4961850;28;20034;-81
2022/11/10 10:08:00;;;;;;;48.70;33.53;;;;;;;;;;4976189;28;20520;-82
2022/11/10 10:10:41;;;;;;;49.88;33.20;;;;;;;;;;4927212;28;20041;-81
2022/11/10 10:13:22;;;;;;;45.13;32.40;;;;;;;;;;4926949;28;20046;-82
2022/11/10 10:16:05;;;;;;;49.40;32.92;;;;;;;;;;4966231;28;20074;-86
2022/11/10 10:19:01;;;;;;;45.78;30.88;;;;;;;;;;4946364;28;20033;-83
2022/11/10 10:21:48;;;;;;;46.05;29.92;;;;;;;;;;4942393;28;20049;-83
2022/11/10 10:24:15;;;;;;;46.28;30.05;;;;;;;;;;4957759;28;20050;-83
2022/11/10 10:26:49;;;;;;;41.17;26.92;;;;;;;;;;4933619;28;20039;-84
2022/11/10 10:29:23;;;;;;;43.03;29.00;;;;;;;;;;4926420;28;20465;-83
2022/11/10 10:31:52;;;;;;;43.85;27.77;;;;;;;;;;4962952;28;20460;-83
2022/11/10 10:34:25;;;;;;;39.90;27.02;;;;;;;;;;4925966;28;20042;-82
2022/11/10 10:36:51;;;;;;;44.13;28.70;;;;;;;;;;4927586;28;20042;-83
2022/11/10 10:39:29;;;;;;;41.13;27.15;;;;;;;;;;4916440;28;20044;-82
2022/11/10 10:41:55;;;;;;;35.45;24.77;;;;;;;;;;4925945;28;20042;-83
2022/11/10 10:44:20;;;;;;;39.97;25.92;;;;;;;;;;4924634;28;20473;-83
2022/11/10 10:46:54;;;;;;;36.72;24.65;;;;;;;;;;4941666;28;20081;-83
2022/11/10 10:49:24;;;;;;;33.45;24.25;;;;;;;;;;4941929;28;20045;-83
2022/11/10 10:51:50;;;;;;;35.67;24.75;;;;;;;;;;4941494;28;20382;-83
2022/11/10 10:54:32;;;;;;;34.38;22.52;;;;;;;;;;4941631;28;20081;-83
2022/11/10 10:57:23;;;;;;;36.30;23.00;;;;;;;;;;4944200;28;20034;-83
2022/11/10 10:59:49;;;;;;;31.67;21.77;;;;;;;;;;4944469;28;20554;-83
2022/11/10 11:02:29;;;;;;;34.10;22.45;;;;;;;;;;4944143;28;20117;-82
2022/11/10 11:05:15;;;;;;;32.38;21.67;;;;;;;;;;4929016;28;20128;-82
2022/11/10 11:07:41;;;;;;;34.08;21.30;;;;;;;;;;4944742;28;20084;-82
2022/11/10 11:10:17;;;;;;;35.15;22.67;;;;;;;;;;4944798;28;20462;-83
2022/11/10 11:12:43;;;;;;;30.60;21.15;;;;;;;;;;4928641;28;20125;-83
2022/11/10 11:15:17;;;;;;;31.83;21.13;;;;;;;;;;4943877;28;20572;-83
2022/11/10 11:17:58;;;;;;;32.20;20.02;;;;;;;;;;4960360;28;20374;-83
2022/11/10 11:20:35;;;;;;;29.75;19.08;;;;;;;;;;4929275;28;20070;-83
2022/11/10 11:23:06;;;;;;;27.33;19.48;;;;;;;;;;4929273;28;20039;-83
2022/11/10 11:25:33;;;;;;;25.60;18.60;;;;;;;;;;4956825;28;20154;-83
2022/11/10 11:28:04;;;;;;;27.30;18.17;;;;;;;;;;4941259;28;20035;-83
2022/11/10 11:30:58;;;;;;;27.30;18.85;;;;;;;;;;4940670;28;20031;-83
2022/11/10 11:33:37;;;;;;;27.98;19.60;;;;;;;;;;4927412;28;20039;-83
2022/11/10 11:36:33;;;;;;;27.48;18.73;;;;;;;;;;4925773;28;20090;-84
2022/11/10 11:39:21;;;;;;;23.48;16.67;;;;;;;;;;4944344;28;20034;-84
2022/11/10 11:42:11;;;;;;;25.23;17.63;;;;;;;;;;4941520;28;20417;-84
2022/11/10 11:45:18;;;;;;;24.23;16.90;;;;;;;;;;4925820;28;20050;-84
2022/11/10 11:48:03;;;;;;;24.65;16.77;;;;;;;;;;4920058;28;20043;-84
2022/11/10 11:50:42;;;;;;;26.02;17.92;;;;;;;;;;4925123;28;20038;-84
2022/11/10 11:53:32;;;;;;;34.47;22.80;;;;;;;;;;4925254;28;20042;-84
2022/11/10 11:56:03;;;;;;;43.17;29.65;;;;;;;;;;4940495;28;20106;-84
2022/11/10 11:58:37;;;;;;;46.67;33.22;;;;;;;;;;4938647;28;20054;-83
2022/11/10 12:01:21;;;;;;;49.75;34.70;;;;;;;;;;4970505;28;20392;-83
2022/11/10 12:03:52;;;;;;;52.72;35.45;;;;;;;;;;4995574;28;20069;-83
2022/11/10 12:06:55;;;;;;;47.85;33.95;;;;;;;;;;4995336;28;20405;-85
2022/11/10 12:09:36;;;;;;;48.60;33.20;;;;;;;;;;4965453;28;20750;-84
2022/11/10 12:12:26;;;;;;;47.08;33.78;;;;;;;;;;4979107;28;20473;-84
2022/11/10 12:15:09;;;;;;;49.58;33.08;;;;;;;;;;4957938;28;20162;-84
2022/11/10 12:17:50;;;;;;;47.25;32.67;;;;;;;;;;4945331;28;20031;-84
2022/11/10 12:20:37;;;;;;;46.20;32.60;;;;;;;;;;4944710;28;20034;-84
2022/11/10 12:23:12;;;;;;;43.60;30.27;;;;;;;;;;4959249;28;20034;-84
2022/11/10 12:25:55;;;;;;;43.47;31.35;;;;;;;;;;4975189;28;20055;-84
2022/11/10 12:28:26;;;;;;;47.92;31.05;;;;;;;;;;4975057;28;20489;-84
2022/11/10 12:30:52;;;;;;;39.72;28.77;;;;;;;;;;4943495;28;20068;-84
2022/11/10 12:33:39;;;;;;;41.47;29.20;;;;;;;;;;4927190;28;20504;-84
2022/11/10 12:36:11;;;;;;;40.13;28.80;;;;;;;;;;4927406;28;20519;-84
2022/11/10 12:38:47;;;;;;;39.30;28.48;;;;;;;;;;4927445;28;20043;-83
2022/11/10 12:41:18;;;;;;;39.40;27.88;;;;;;;;;;4924053;28;20030;-84
2022/11/10 12:44:01;;;;;;;40.30;27.00;;;;;;;;;;4939868;28;20050;-84
2022/11/10 12:46:27;;;;;;;37.13;26.27;;;;;;;;;;4955531;28;20050;-84
2022/11/10 12:49:30;;;;;;;36.60;26.45;;;;;;;;;;4940020;28;20038;-84
2022/11/10 12:51:58;;;;;;;39.90;27.50;;;;;;;;;;4900366;28;20050;-84
2022/11/10 12:54:25;;;;;;;35.03;25.05;;;;;;;;;;4940067;28;20039;-84
2022/11/10 12:56:53;;;;;;;34.92;26.27;;;;;;;;;;4924035;28;20036;-84
2022/11/10 12:59:31;;;;;;;37.30;25.92;;;;;;;;;;4924078;28;20031;-84
2022/11/10 13:02:24;;;;;;;31.65;23.48;;;;;;;;;;4925129;28;20123;-83
2022/11/10 13:05:23;;;;;;;33.60;24.08;;;;;;;;;;4935444;28;20130;-83
2022/11/10 13:07:49;;;;;;;33.92;22.73;;;;;;;;;;4939466;28;20081;-84
2022/11/10 13:10:15;;;;;;;34.25;23.50;;;;;;;;;;4923905;28;20035;-84
2022/11/10 13:13:06;;;;;;;32.80;23.45;;;;;;;;;;4938736;28;20038;-84
2022/11/10 13:15:37;;;;;;;29.10;21.42;;;;;;;;;;4935504;28;20039;-84
2022/11/10 13:18:23;;;;;;;30.73;23.40;;;;;;;;;;4974809;28;20070;-84
2022/11/10 13:20:50;;;;;;;38.63;26.80;;;;;;;;;;4916284;28;20284;-84
2022/11/10 13:23:27;;;;;;;47.20;30.15;;;;;;;;;;4958166;28;20042;-84
2022/11/10 13:25:54;;;;;;;46.38;34.53;;;;;;;;;;4958165;28;20057;-84
2022/11/10 13:28:47;;;;;;;51.60;37.50;;;;;;;;;;4974507;28;20037;-84
2022/11/10 13:31:29;;;;;;;53.78;39.67;;;;;;;;;;4958257;28;20034;-84
2022/11/10 13:34:20;;;;;;;55.67;39.95;;;;;;;;;;4958693;28;20490;-85
2022/11/10 13:36:47;;;;;;;58.80;41.47;;;;;;;;;;4958755;28;20142;-85
2022/11/10 13:39:18;;;;;;;55.45;39.58;;;;;;;;;;4943037;28;20061;-83
2022/11/10 13:42:13;;;;;;;55.13;40.85;;;;;;;;;;4958052;28;20489;-84
2022/11/10 13:44:40;;;;;;;57.42;40.58;;;;;;;;;;4942680;28;20049;-84
2022/11/10 13:47:07;;;;;;;55.90;40.20;;;;;;;;;;4943126;28;20160;-84
2022/11/10 13:49:51;;;;;;;54.85;39.00;;;;;;;;;;4974586;28;20042;-84
2022/11/10 13:52:25;;;;;;;52.63;38.78;;;;;;;;;;4974370;28;20572;-84
2022/11/10 13:55:26;;;;;;;52.42;37.90;;;;;;;;;;4927132;28;20045;-83
2022/11/10 13:58:07;;;;;;;52.90;35.30;;;;;;;;;;4938222;28;20126;-85
2022/11/10 14:00:34;;;;;;;50.70;35.95;;;;;;;;;;4926621;28;20125;-83
2022/11/10 14:03:03;;;;;;;50.65;37.10;;;;;;;;;;4926609;28;20481;-85
2022/11/10 14:05:36;;;;;;;47.72;33.58;;;;;;;;;;4942653;28;20034;-85
2022/11/10 14:08:05;;;;;;;48.50;35.85;;;;;;;;;;4958387;28;20121;-85
2022/11/10 14:10:39;;;;;;;48.88;34.72;;;;;;;;;;4942524;28;20038;-84
2022/11/10 14:13:19;;;;;;;44.95;34.15;;;;;;;;;;4958004;28;20157;-84
2022/11/10 14:15:46;;;;;;;48.83;35.50;;;;;;;;;;4927933;28;20037;-84
2022/11/10 14:18:21;;;;;;;52.35;39.45;;;;;;;;;;4944560;28;20405;-83
2022/11/10 14:20:53;;;;;;;54.60;40.90;;;;;;;;;;4945899;28;20050;-83
2022/11/10 14:23:23;;;;;;;60.85;43.97;;;;;;;;;;4945745;28;20038;-84
2022/11/10 14:25:58;;;;;;;65.53;46.40;;;;;;;;;;4945920;28;20058;-84
2022/11/10 14:28:29;;;;;;;66.05;48.25;;;;;;;;;;4946049;28;20030;-84
2022/11/10 14:30:54;;;;;;;69.70;50.67;;;;;;;;;;4930225;28;20488;-84
2022/11/10 14:33:20;;;;;;;66.85;48.42;;;;;;;;;;4961171;28;20046;-84
2022/11/10 14:35:52;;;;;;;67.10;49.45;;;;;;;;;;4929827;28;20382;-84
2022/11/10 14:38:22;;;;;;;67.72;48.53;;;;;;;;;;4945874;28;20108;-84
2022/11/10 14:40:48;;;;;;;69.07;49.25;;;;;;;;;;4926488;28;20039;-84
2022/11/10 14:43:43;;;;;;;68.15;50.70;;;;;;;;;;4925750;28;20035;-84
2022/11/10 14:46:12;;;;;;;63.42;45.75;;;;;;;;;;4937673;28;20043;-84
2022/11/10 14:48:38;;;;;;;65.75;46.88;;;;;;;;;;4926033;28;20505;-84
2022/11/10 14:51:10;;;;;;;60.03;44.90;;;;;;;;;;4925395;28;20050;-84
2022/11/10 14:53:52;;;;;;;56.72;43.35;;;;;;;;;;4925817;28;20425;-84
2022/11/10 14:56:31;;;;;;;58.13;40.47;;;;;;;;;;4925894;28;20054;-84
2022/11/10 14:58:58;;;;;;;57.80;42.88;;;;;;;;;;4925913;28;20121;-85
2022/11/10 15:01:32;;;;;;;58.22;42.13;;;;;;;;;;4910288;28;20039;-84
2022/11/10 15:03:58;;;;;;;51.65;37.33;;;;;;;;;;4942890;28;20113;-84
2022/11/10 15:06:23;;;;;;;50.03;39.03;;;;;;;;;;4941089;28;20113;-84
2022/11/10 15:08:49;;;;;;;51.90;37.90;;;;;;;;;;4925452;28;20053;-84
2022/11/10 15:11:37;;;;;;;48.47;34.95;;;;;;;;;;4925042;28;20052;-84
2022/11/10 15:14:02;;;;;;;50.65;35.97;;;;;;;;;;4941568;28;20026;-84
2022/11/10 15:16:37;;;;;;;52.05;36.00;;;;;;;;;;4960328;28;20501;-84
2022/11/10 15:19:19;;;;;;;51.45;36.88;;;;;;;;;;4929333;28;20026;-84
2022/11/10 15:21:44;;;;;;;49.22;35.90;;;;;;;;;;4960233;28;20496;-85
2022/11/10 15:24:09;;;;;;;45.88;33.40;;;;;;;;;;4960520;28;20113;-85
2022/11/10 15:26:38;;;;;;;49.72;32.40;;;;;;;;;;4960117;28;20046;-85
2022/11/10 15:29:03;;;;;;;47.38;33.30;;;;;;;;;;4927864;28;20106;-85
2022/11/10 15:31:30;;;;;;;41.47;30.92;;;;;;;;;;4960270;28;20034;-85
2022/11/10 15:34:03;;;;;;;43.65;32.25;;;;;;;;;;4944559;28;20424;-84
2022/11/10 15:36:31;;;;;;;40.95;30.83;;;;;;;;;;4944447;28;20043;-85
2022/11/10 15:39:21;;;;;;;42.85;30.67;;;;;;;;;;4928891;28;20037;-84
2022/11/10 15:41:48;;;;;;;42.40;30.23;;;;;;;;;;4926759;28;20045;-85
2022/11/10 15:44:17;;;;;;;42.05;30.08;;;;;;;;;;4925534;28;20035;-85
2022/11/10 15:46:43;;;;;;;39.67;27.77;;;;;;;;;;4909923;28;20584;-85
2022/11/10 15:49:16;;;;;;;42.10;30.02;;;;;;;;;;4909538;28;20113;-85
2022/11/10 15:51:41;;;;;;;37.55;27.90;;;;;;;;;;4940594;28;20043;-85
2022/11/10 15:54:08;;;;;;;37.85;27.35;;;;;;;;;;4940775;28;20428;-85
2022/11/10 15:56:33;;;;;;;36.80;28.38;;;;;;;;;;4908809;28;20501;-85